createdAt,value
2017-11-15T00:00:51.685Z,8.68
2017-11-15T00:01:51.389Z,8.6
2017-11-15T00:02:51.646Z,8.6
2017-11-15T00:03:51.349Z,8.57
2017-11-15T00:04:51.336Z,8.6
2017-11-15T00:05:51.328Z,8.6
2017-11-15T00:06:51.300Z,8.62
2017-11-15T00:07:51.284Z,8.62
2017-11-15T00:08:51.261Z,8.66
2017-11-15T00:09:51.238Z,8.51
2017-11-15T00:10:51.229Z,8.55
2017-11-15T00:11:51.474Z,8.6
2017-11-15T00:12:51.456Z,8.69
2017-11-15T00:13:50.948Z,8.58
2017-11-15T00:14:51.155Z,8.6
2017-11-15T00:15:51.130Z,8.57
2017-11-15T00:16:51.113Z,8.6
2017-11-15T00:17:51.092Z,8.55
2017-11-15T00:18:51.076Z,8.69
2017-11-15T00:19:51.324Z,8.65
2017-11-15T00:20:51.040Z,8.55
2017-11-15T00:21:51.018Z,8.63
2017-11-15T00:22:51.268Z,8.71
2017-11-15T00:23:51.038Z,8.72
2017-11-15T00:24:50.965Z,8.71
2017-11-15T00:25:50.948Z,8.68
2017-11-15T00:26:51.212Z,8.6
2017-11-15T00:27:50.905Z,8.69
2017-11-15T00:28:51.157Z,8.63
2017-11-15T00:29:50.876Z,8.68
2017-11-15T00:30:50.851Z,8.75
2017-11-15T00:31:50.835Z,8.75
2017-11-15T00:32:50.812Z,8.58
2017-11-15T00:33:50.801Z,8.71
2017-11-15T00:34:50.777Z,8.72
2017-11-15T00:35:50.491Z,8.71
2017-11-15T00:36:51.010Z,8.71
2017-11-15T00:37:50.994Z,8.57
2017-11-15T00:38:50.487Z,8.63
2017-11-15T00:39:50.417Z,8.73
2017-11-15T00:40:50.947Z,8.69
2017-11-15T00:41:50.660Z,8.73
2017-11-15T00:42:50.648Z,8.73
2017-11-15T00:43:50.667Z,8.71
2017-11-15T00:44:50.595Z,8.65
2017-11-15T00:45:50.307Z,8.6
2017-11-15T00:46:50.556Z,8.71
2017-11-15T00:47:50.809Z,8.68
2017-11-15T00:48:50.521Z,8.65
2017-11-15T00:49:50.520Z,8.73
2017-11-15T00:50:50.751Z,8.72
2017-11-15T00:51:50.733Z,8.71
2017-11-15T00:52:50.445Z,8.62
2017-11-15T00:53:50.158Z,8.69
2017-11-15T00:54:50.687Z,8.73
2017-11-15T00:55:50.391Z,8.75
2017-11-15T00:56:50.372Z,8.75
2017-11-15T00:57:50.360Z,8.69
2017-11-15T00:58:50.074Z,8.68
2017-11-15T00:59:50.315Z,8.71
2017-11-15T01:00:50.307Z,8.71
2017-11-15T01:01:50.557Z,8.69
2017-11-15T01:02:50.264Z,8.68
2017-11-15T01:03:50.248Z,8.62
2017-11-15T01:04:50.240Z,8.72
2017-11-15T01:05:50.210Z,8.63
2017-11-15T01:06:50.190Z,8.72
2017-11-15T01:07:50.447Z,8.69
2017-11-15T01:08:50.169Z,8.71
2017-11-15T01:09:50.136Z,8.71
2017-11-15T01:10:49.849Z,8.65
2017-11-15T01:11:50.102Z,8.71
2017-11-15T01:12:49.807Z,8.73
2017-11-15T01:13:50.328Z,8.66
2017-11-15T01:14:49.773Z,8.71
2017-11-15T01:15:50.026Z,8.69
2017-11-15T01:16:50.005Z,8.66
2017-11-15T01:17:49.984Z,8.71
2017-11-15T01:18:50.242Z,8.66
2017-11-15T01:19:49.683Z,8.71
2017-11-15T01:20:50.202Z,8.73
2017-11-15T01:21:49.924Z,8.71
2017-11-15T01:22:50.167Z,8.65
2017-11-15T01:23:50.147Z,8.55
2017-11-15T01:24:49.857Z,8.55
2017-11-15T01:25:50.108Z,8.58
2017-11-15T01:26:49.555Z,8.69
2017-11-15T01:27:49.801Z,8.71
2017-11-15T01:28:49.789Z,8.69
2017-11-15T01:29:50.034Z,8.63
2017-11-15T01:30:49.753Z,8.68
2017-11-15T01:31:49.733Z,8.55
2017-11-15T01:32:49.709Z,8.69
2017-11-15T01:33:49.438Z,8.72
2017-11-15T01:34:49.719Z,8.63
2017-11-15T01:35:49.932Z,8.71
2017-11-15T01:36:49.639Z,8.51
2017-11-15T01:37:49.895Z,8.58
2017-11-15T01:38:49.867Z,8.62
2017-11-15T01:39:49.591Z,8.73
2017-11-15T01:40:49.843Z,8.71
2017-11-15T01:41:49.274Z,8.68
2017-11-15T01:42:49.798Z,8.68
2017-11-15T01:43:49.507Z,8.71
2017-11-15T01:44:49.267Z,8.71
2017-11-15T01:45:49.473Z,8.65
2017-11-15T01:46:49.721Z,8.65
2017-11-15T01:47:49.445Z,8.6
2017-11-15T01:48:49.420Z,8.57
2017-11-15T01:49:49.397Z,8.58
2017-11-15T01:50:49.377Z,8.6
2017-11-15T01:51:49.360Z,8.6
2017-11-15T01:52:49.341Z,8.65
2017-11-15T01:53:49.326Z,8.62
2017-11-15T01:54:49.304Z,8.62
2017-11-15T01:55:49.490Z,8.57
2017-11-15T01:56:49.274Z,8.58
2017-11-15T01:57:49.524Z,8.63
2017-11-15T01:58:49.235Z,8.63
2017-11-15T01:59:48.945Z,8.55
2017-11-15T02:00:49.472Z,8.63
2017-11-15T02:01:49.178Z,8.58
2017-11-15T02:02:48.889Z,8.63
2017-11-15T02:03:49.141Z,8.58
2017-11-15T02:04:49.412Z,8.62
2017-11-15T02:05:49.376Z,8.62
2017-11-15T02:06:49.364Z,8.66
2017-11-15T02:07:49.337Z,8.63
2017-11-15T02:08:49.322Z,8.6
2017-11-15T02:09:48.761Z,8.57
2017-11-15T02:10:48.738Z,8.69
2017-11-15T02:11:48.997Z,8.63
2017-11-15T02:12:49.255Z,8.57
2017-11-15T02:13:48.955Z,8.58
2017-11-15T02:14:48.937Z,8.54
2017-11-15T02:15:49.197Z,8.63
2017-11-15T02:16:49.170Z,8.65
2017-11-15T02:17:48.879Z,8.57
2017-11-15T02:18:48.594Z,8.65
2017-11-15T02:19:48.846Z,8.71
2017-11-15T02:20:48.829Z,8.66
2017-11-15T02:21:48.809Z,8.62
2017-11-15T02:22:48.796Z,8.62
2017-11-15T02:23:48.782Z,8.63
2017-11-15T02:24:48.483Z,8.62
2017-11-15T02:25:48.464Z,8.63
2017-11-15T02:26:48.448Z,8.57
2017-11-15T02:27:48.971Z,8.63
2017-11-15T02:28:48.681Z,8.62
2017-11-15T02:29:48.390Z,8.62
2017-11-15T02:30:48.644Z,8.63
2017-11-15T02:31:48.625Z,8.66
2017-11-15T02:32:48.616Z,8.63
2017-11-15T02:33:48.586Z,8.63
2017-11-15T02:34:48.839Z,8.57
2017-11-15T02:35:48.599Z,8.57
2017-11-15T02:36:48.267Z,8.55
2017-11-15T02:37:48.246Z,8.57
2017-11-15T02:38:48.232Z,8.65
2017-11-15T02:39:48.758Z,8.6
2017-11-15T02:40:48.458Z,8.62
2017-11-15T02:41:48.713Z,8.58
2017-11-15T02:42:48.715Z,8.62
2017-11-15T02:43:48.133Z,8.62
2017-11-15T02:44:48.388Z,8.57
2017-11-15T02:45:48.641Z,8.55
2017-11-15T02:46:48.366Z,8.6
2017-11-15T02:47:48.617Z,8.57
2017-11-15T02:48:48.332Z,8.57
2017-11-15T02:49:48.026Z,8.62
2017-11-15T02:50:48.278Z,8.6
2017-11-15T02:51:48.254Z,8.62
2017-11-15T02:52:48.239Z,8.54
2017-11-15T02:53:48.500Z,8.66
2017-11-15T02:54:48.206Z,8.55
2017-11-15T02:55:48.191Z,8.65
2017-11-15T02:56:48.447Z,8.63
2017-11-15T02:57:48.143Z,8.58
2017-11-15T02:58:48.397Z,8.57
2017-11-15T02:59:48.108Z,8.58
2017-11-15T03:00:48.104Z,8.57
2017-11-15T03:01:48.350Z,8.58
2017-11-15T03:02:48.323Z,8.58
2017-11-15T03:03:48.306Z,8.68
2017-11-15T03:04:48.282Z,8.6
2017-11-15T03:05:48.002Z,8.55
2017-11-15T03:06:47.983Z,8.65
2017-11-15T03:07:48.232Z,8.58
2017-11-15T03:08:48.213Z,8.58
2017-11-15T03:09:48.189Z,8.6
2017-11-15T03:10:47.904Z,8.58
2017-11-15T03:11:47.623Z,8.58
2017-11-15T03:12:47.869Z,8.65
2017-11-15T03:13:48.128Z,8.55
2017-11-15T03:14:47.562Z,8.57
2017-11-15T03:15:47.816Z,8.6
2017-11-15T03:16:47.795Z,8.57
2017-11-15T03:17:48.052Z,8.6
2017-11-15T03:18:47.757Z,8.57
2017-11-15T03:19:47.734Z,8.65
2017-11-15T03:20:47.451Z,8.6
2017-11-15T03:21:47.702Z,8.63
2017-11-15T03:22:47.686Z,8.63
2017-11-15T03:23:47.661Z,8.58
2017-11-15T03:24:47.919Z,8.6
2017-11-15T03:25:47.916Z,8.63
2017-11-15T03:26:47.661Z,8.58
2017-11-15T03:27:47.862Z,8.6
2017-11-15T03:28:47.838Z,8.63
2017-11-15T03:29:47.286Z,8.68
2017-11-15T03:30:47.544Z,8.69
2017-11-15T03:31:47.520Z,8.65
2017-11-15T03:32:47.789Z,8.65
2017-11-15T03:33:47.756Z,8.68
2017-11-15T03:34:47.192Z,8.6
2017-11-15T03:35:47.449Z,8.68
2017-11-15T03:36:47.693Z,8.58
2017-11-15T03:37:47.408Z,8.65
2017-11-15T03:38:47.658Z,8.71
2017-11-15T03:39:47.640Z,8.68
2017-11-15T03:40:47.094Z,8.62
2017-11-15T03:41:47.381Z,8.68
2017-11-15T03:42:47.312Z,8.6
2017-11-15T03:43:47.292Z,8.63
2017-11-15T03:44:47.280Z,8.65
2017-11-15T03:45:47.256Z,8.57
2017-11-15T03:46:47.515Z,8.69
2017-11-15T03:47:47.222Z,8.63
2017-11-15T03:48:47.473Z,8.57
2017-11-15T03:49:47.196Z,8.66
2017-11-15T03:50:46.896Z,8.63
2017-11-15T03:51:47.472Z,8.62
2017-11-15T03:52:47.399Z,8.65
2017-11-15T03:53:46.843Z,8.66
2017-11-15T03:54:47.361Z,8.62
2017-11-15T03:55:47.209Z,8.65
2017-11-15T03:56:46.787Z,8.62
2017-11-15T03:57:47.327Z,8.62
2017-11-15T03:58:47.016Z,8.58
2017-11-15T03:59:47.270Z,8.63
2017-11-15T04:00:46.990Z,8.63
2017-11-15T04:01:47.233Z,8.62
2017-11-15T04:02:46.940Z,8.6
2017-11-15T04:03:46.928Z,8.66
2017-11-15T04:04:46.636Z,8.68
2017-11-15T04:05:46.885Z,8.71
2017-11-15T04:06:47.156Z,8.62
2017-11-15T04:07:46.849Z,8.58
2017-11-15T04:08:47.106Z,8.58
2017-11-15T04:09:46.548Z,8.71
2017-11-15T04:10:46.798Z,8.58
2017-11-15T04:11:46.508Z,8.58
2017-11-15T04:12:46.756Z,8.62
2017-11-15T04:13:46.754Z,8.68
2017-11-15T04:14:46.989Z,8.68
2017-11-15T04:15:46.711Z,8.63
2017-11-15T04:16:46.959Z,8.68
2017-11-15T04:17:46.945Z,8.6
2017-11-15T04:18:46.659Z,8.55
2017-11-15T04:19:46.632Z,8.63
2017-11-15T04:20:46.618Z,8.6
2017-11-15T04:21:46.596Z,8.58
2017-11-15T04:22:46.846Z,8.66
2017-11-15T04:23:46.296Z,8.54
2017-11-15T04:24:46.804Z,8.58
2017-11-15T04:25:46.522Z,8.68
2017-11-15T04:26:46.233Z,8.63
2017-11-15T04:27:46.229Z,8.58
2017-11-15T04:28:46.481Z,8.63
2017-11-15T04:29:46.460Z,8.57
2017-11-15T04:30:46.161Z,8.66
2017-11-15T04:31:46.409Z,8.62
2017-11-15T04:32:46.406Z,8.68
2017-11-15T04:33:46.374Z,8.62
2017-11-15T04:34:46.084Z,8.62
2017-11-15T04:35:46.345Z,8.6
2017-11-15T04:36:46.332Z,8.68
2017-11-15T04:37:46.032Z,8.58
2017-11-15T04:38:46.297Z,8.54
2017-11-15T04:39:46.275Z,8.55
2017-11-15T04:40:46.521Z,8.6
2017-11-15T04:41:46.223Z,8.6
2017-11-15T04:42:46.210Z,8.58
2017-11-15T04:43:46.196Z,8.57
2017-11-15T04:44:46.439Z,8.5
2017-11-15T04:45:46.152Z,8.54
2017-11-15T04:46:46.146Z,8.53
2017-11-15T04:47:46.173Z,8.5
2017-11-15T04:48:46.095Z,8.53
2017-11-15T04:49:45.817Z,8.42
2017-11-15T04:50:46.066Z,8.44
2017-11-15T04:51:46.311Z,8.5
2017-11-15T04:52:46.016Z,8.47
2017-11-15T04:53:46.012Z,8.42
2017-11-15T04:54:46.001Z,8.45
2017-11-15T04:55:45.979Z,8.44
2017-11-15T04:56:46.212Z,8.48
2017-11-15T04:57:45.663Z,8.48
2017-11-15T04:58:45.916Z,8.4
2017-11-15T04:59:45.913Z,8.47
2017-11-15T05:00:46.144Z,8.42
2017-11-15T05:01:45.585Z,8.42
2017-11-15T05:02:45.887Z,8.4
2017-11-15T05:03:45.545Z,8.42
2017-11-15T05:04:45.799Z,8.4
2017-11-15T05:05:45.778Z,8.35
2017-11-15T05:06:46.033Z,8.42
2017-11-15T05:07:45.480Z,8.37
2017-11-15T05:08:46.002Z,8.36
2017-11-15T05:09:45.715Z,8.48
2017-11-15T05:10:45.689Z,8.42
2017-11-15T05:11:45.668Z,8.42
2017-11-15T05:12:45.925Z,8.42
2017-11-15T05:13:45.634Z,8.35
2017-11-15T05:14:45.815Z,8.39
2017-11-15T05:15:45.865Z,8.45
2017-11-15T05:16:45.848Z,8.39
2017-11-15T05:17:45.844Z,8.33
2017-11-15T05:18:45.812Z,8.53
2017-11-15T05:19:45.529Z,8.42
2017-11-15T05:20:45.767Z,8.45
2017-11-15T05:21:45.488Z,8.45
2017-11-15T05:22:45.464Z,8.45
2017-11-15T05:23:45.451Z,8.5
2017-11-15T05:24:45.427Z,8.45
2017-11-15T05:25:45.690Z,8.4
2017-11-15T05:26:45.120Z,8.53
2017-11-15T05:27:45.105Z,8.48
2017-11-15T05:28:45.370Z,8.5
2017-11-15T05:29:45.609Z,8.47
2017-11-15T05:30:45.319Z,8.39
2017-11-15T05:31:45.299Z,8.39
2017-11-15T05:32:45.278Z,8.39
2017-11-15T05:33:45.260Z,8.47
2017-11-15T05:34:45.244Z,8.45
2017-11-15T05:35:45.222Z,8.48
2017-11-15T05:36:45.211Z,8.47
2017-11-15T05:37:45.182Z,8.48
2017-11-15T05:38:45.167Z,8.48
2017-11-15T05:39:45.146Z,8.48
2017-11-15T05:40:45.144Z,8.44
2017-11-15T05:41:45.105Z,8.47
2017-11-15T05:42:45.100Z,8.48
2017-11-15T05:43:45.121Z,8.45
2017-11-15T05:44:45.056Z,8.44
2017-11-15T05:45:44.762Z,8.4
2017-11-15T05:46:45.020Z,8.48
2017-11-15T05:47:44.723Z,8.45
2017-11-15T05:48:45.244Z,8.44
2017-11-15T05:49:44.970Z,8.44
2017-11-15T05:50:45.221Z,8.51
2017-11-15T05:51:44.933Z,8.47
2017-11-15T05:52:44.903Z,8.48
2017-11-15T05:53:45.154Z,8.5
2017-11-15T05:54:44.863Z,8.51
2017-11-15T05:55:44.858Z,8.42
2017-11-15T05:56:44.764Z,8.48
2017-11-15T05:57:44.813Z,8.47
2017-11-15T05:58:44.794Z,8.47
2017-11-15T05:59:45.048Z,8.53
2017-11-15T06:00:44.753Z,8.42
2017-11-15T06:01:45.003Z,8.47
2017-11-15T06:02:44.718Z,8.54
2017-11-15T06:03:44.699Z,8.5
2017-11-15T06:04:44.951Z,8.55
2017-11-15T06:05:44.660Z,8.55
2017-11-15T06:06:44.642Z,8.53
2017-11-15T06:07:44.355Z,8.5
2017-11-15T06:08:44.878Z,8.51
2017-11-15T06:09:44.695Z,8.58
2017-11-15T06:10:44.311Z,8.51
2017-11-15T06:11:44.424Z,8.5
2017-11-15T06:12:44.630Z,8.55
2017-11-15T06:13:44.983Z,8.58
2017-11-15T06:14:44.992Z,8.54
2017-11-15T06:15:44.242Z,8.51
2017-11-15T06:16:45.005Z,8.55
2017-11-15T06:17:44.645Z,8.57
2017-11-15T06:18:44.478Z,8.57
2017-11-15T06:19:44.804Z,8.51
2017-11-15T06:20:44.538Z,8.54
2017-11-15T06:21:44.463Z,8.58
2017-11-15T06:22:44.495Z,8.65
2017-11-15T06:23:44.830Z,8.57
2017-11-15T06:24:44.512Z,8.54
2017-11-15T06:25:44.326Z,8.65
2017-11-15T06:26:44.403Z,8.58
2017-11-15T06:27:44.065Z,8.63
2017-11-15T06:28:44.818Z,8.62
2017-11-15T06:29:44.838Z,8.6
2017-11-15T06:30:44.024Z,8.57
2017-11-15T06:31:43.918Z,8.65
2017-11-15T06:32:43.886Z,8.66
2017-11-15T06:33:44.157Z,8.71
2017-11-15T06:34:44.612Z,8.6
2017-11-15T06:35:44.304Z,8.62
2017-11-15T06:36:43.978Z,8.57
2017-11-15T06:37:43.852Z,8.62
2017-11-15T06:38:44.045Z,8.68
2017-11-15T06:39:44.365Z,8.63
2017-11-15T06:40:44.021Z,8.58
2017-11-15T06:41:44.281Z,8.66
2017-11-15T06:42:44.245Z,8.6
2017-11-15T06:43:43.959Z,8.54
2017-11-15T06:44:43.985Z,8.69
2017-11-15T06:45:43.918Z,8.68
2017-11-15T06:46:43.632Z,8.6
2017-11-15T06:47:43.876Z,8.57
2017-11-15T06:48:43.857Z,8.71
2017-11-15T06:49:43.842Z,8.6
2017-11-15T06:50:43.832Z,8.72
2017-11-15T06:51:43.802Z,8.72
2017-11-15T06:52:43.788Z,8.66
2017-11-15T06:53:43.499Z,8.72
2017-11-15T06:54:44.024Z,8.73
2017-11-15T06:55:43.459Z,8.68
2017-11-15T06:56:43.718Z,8.73
2017-11-15T06:57:43.702Z,8.71
2017-11-15T06:58:43.405Z,8.73
2017-11-15T06:59:43.437Z,8.71
2017-11-15T07:00:43.369Z,8.71
2017-11-15T07:01:43.893Z,8.66
2017-11-15T07:02:43.868Z,8.78
2017-11-15T07:03:43.585Z,8.73
2017-11-15T07:04:43.566Z,8.76
2017-11-15T07:05:43.564Z,8.75
2017-11-15T07:06:43.530Z,8.75
2017-11-15T07:07:43.525Z,8.72
2017-11-15T07:08:43.491Z,8.73
2017-11-15T07:09:43.744Z,8.73
2017-11-15T07:10:43.458Z,8.73
2017-11-15T07:11:43.707Z,8.75
2017-11-15T07:12:43.436Z,8.75
2017-11-15T07:13:43.132Z,8.71
2017-11-15T07:14:43.386Z,8.78
2017-11-15T07:15:43.379Z,8.79
2017-11-15T07:16:43.616Z,8.79
2017-11-15T07:17:43.603Z,8.78
2017-11-15T07:18:43.579Z,8.78
2017-11-15T07:19:43.345Z,8.78
2017-11-15T07:20:43.004Z,8.76
2017-11-15T07:21:43.257Z,8.73
2017-11-15T07:22:43.511Z,8.73
2017-11-15T07:23:43.217Z,8.72
2017-11-15T07:24:42.930Z,8.83
2017-11-15T07:25:43.183Z,8.81
2017-11-15T07:26:43.164Z,8.79
2017-11-15T07:27:42.884Z,8.83
2017-11-15T07:28:43.399Z,8.83
2017-11-15T07:29:43.109Z,8.81
2017-11-15T07:30:43.357Z,8.81
2017-11-15T07:31:42.797Z,8.9
2017-11-15T07:32:43.324Z,8.86
2017-11-15T07:33:43.307Z,8.88
2017-11-15T07:34:43.020Z,8.86
2017-11-15T07:35:43.010Z,8.87
2017-11-15T07:36:42.982Z,8.86
2017-11-15T07:37:42.982Z,8.84
2017-11-15T07:38:43.212Z,8.91
2017-11-15T07:39:43.206Z,8.79
2017-11-15T07:40:42.908Z,8.83
2017-11-15T07:41:43.160Z,8.86
2017-11-15T07:42:43.148Z,8.87
2017-11-15T07:43:42.853Z,8.78
2017-11-15T07:44:42.566Z,8.93
2017-11-15T07:45:42.818Z,8.87
2017-11-15T07:46:42.800Z,8.81
2017-11-15T07:47:42.518Z,8.88
2017-11-15T07:48:43.031Z,8.81
2017-11-15T07:49:42.476Z,8.86
2017-11-15T07:50:42.510Z,8.94
2017-11-15T07:51:42.980Z,8.9
2017-11-15T07:52:42.963Z,8.93
2017-11-15T07:53:42.957Z,8.94
2017-11-15T07:54:42.939Z,8.91
2017-11-15T07:55:42.915Z,8.94
2017-11-15T07:56:43.089Z,8.96
2017-11-15T07:57:42.333Z,8.96
2017-11-15T07:58:42.855Z,8.93
2017-11-15T07:59:42.838Z,8.97
2017-11-15T08:00:42.825Z,9.01
2017-11-15T08:01:42.528Z,9.04
2017-11-15T08:02:42.520Z,9.09
2017-11-15T08:03:42.770Z,9.12
2017-11-15T08:04:42.207Z,9.04
2017-11-15T08:05:42.508Z,9.09
2017-11-15T08:06:42.719Z,9.13
2017-11-15T08:07:42.692Z,9.09
2017-11-15T08:08:42.681Z,9.15
2017-11-15T08:09:42.664Z,9.1
2017-11-15T08:10:42.645Z,9.18
2017-11-15T08:11:42.353Z,9.2
2017-11-15T08:12:42.610Z,9.18
2017-11-15T08:13:42.045Z,9.18
2017-11-15T08:14:42.570Z,9.23
2017-11-15T08:15:42.291Z,9.12
2017-11-15T08:16:42.549Z,9.24
2017-11-15T08:17:42.247Z,9.3
2017-11-15T08:18:42.233Z,9.31
2017-11-15T08:19:42.244Z,9.25
2017-11-15T08:20:42.509Z,9.34
2017-11-15T08:21:42.175Z,9.27
2017-11-15T08:22:42.430Z,9.34
2017-11-15T08:23:41.888Z,9.32
2017-11-15T08:24:41.851Z,9.28
2017-11-15T08:25:42.383Z,9.27
2017-11-15T08:26:42.356Z,9.27
2017-11-15T08:27:42.067Z,9.25
2017-11-15T08:28:42.326Z,9.28
2017-11-15T08:29:42.039Z,9.31
2017-11-15T08:30:42.017Z,9.32
2017-11-15T08:31:41.998Z,9.38
2017-11-15T08:32:41.982Z,9.45
2017-11-15T08:33:41.966Z,9.42
2017-11-15T08:34:41.955Z,9.35
2017-11-15T08:35:41.925Z,9.38
2017-11-15T08:36:41.912Z,9.46
2017-11-15T08:37:41.893Z,9.35
2017-11-15T08:38:42.151Z,9.42
2017-11-15T08:39:41.882Z,9.38
2017-11-15T08:40:41.840Z,9.46
2017-11-15T08:41:41.824Z,9.42
2017-11-15T08:42:41.805Z,9.43
2017-11-15T08:43:41.795Z,9.39
2017-11-15T08:44:41.778Z,9.45
2017-11-15T08:45:41.756Z,9.5
2017-11-15T08:46:42.007Z,9.49
2017-11-15T08:47:41.719Z,9.48
2017-11-15T08:48:41.975Z,9.56
2017-11-15T08:49:41.685Z,9.56
2017-11-15T08:50:41.672Z,9.56
2017-11-15T08:51:41.653Z,9.61
2017-11-15T08:52:41.364Z,9.58
2017-11-15T08:53:41.894Z,9.56
2017-11-15T08:54:41.327Z,9.58
2017-11-15T08:55:41.312Z,9.56
2017-11-15T08:56:41.830Z,9.61
2017-11-15T08:57:41.279Z,9.6
2017-11-15T08:58:41.260Z,9.66
2017-11-15T08:59:41.784Z,9.64
2017-11-15T09:00:41.494Z,9.68
2017-11-15T09:01:41.801Z,9.61
2017-11-15T09:02:41.733Z,9.64
2017-11-15T09:03:41.720Z,9.64
2017-11-15T09:04:41.696Z,9.66
2017-11-15T09:05:41.405Z,9.61
2017-11-15T09:06:41.387Z,9.7
2017-11-15T09:07:41.655Z,9.7
2017-11-15T09:08:41.630Z,9.76
2017-11-15T09:09:41.071Z,9.71
2017-11-15T09:10:41.319Z,9.73
2017-11-15T09:11:41.304Z,9.7
2017-11-15T09:12:41.559Z,9.78
2017-11-15T09:13:41.004Z,9.75
2017-11-15T09:14:41.254Z,9.79
2017-11-15T09:15:41.242Z,9.89
2017-11-15T09:16:41.225Z,9.93
2017-11-15T09:17:40.936Z,9.96
2017-11-15T09:18:41.476Z,9.88
2017-11-15T09:19:40.900Z,9.85
2017-11-15T09:20:41.148Z,9.79
2017-11-15T09:21:40.868Z,9.86
2017-11-15T09:22:41.116Z,10.01
2017-11-15T09:23:40.831Z,9.96
2017-11-15T09:24:41.087Z,10.06
2017-11-15T09:25:41.077Z,9.94
2017-11-15T09:26:40.832Z,10
2017-11-15T09:27:41.036Z,10
2017-11-15T09:28:41.025Z,9.97
2017-11-15T09:29:40.999Z,10
2017-11-15T09:30:40.716Z,10
2017-11-15T09:31:40.967Z,10.03
2017-11-15T09:32:41.227Z,10.1
2017-11-15T09:33:40.933Z,10.12
2017-11-15T09:34:41.192Z,10.22
2017-11-15T09:35:40.897Z,10.22
2017-11-15T09:36:40.621Z,10.19
2017-11-15T09:37:41.146Z,10.15
2017-11-15T09:38:40.858Z,10.21
2017-11-15T09:39:40.562Z,10.19
2017-11-15T09:40:41.093Z,10.18
2017-11-15T09:41:40.850Z,10.19
2017-11-15T09:42:40.788Z,10.19
2017-11-15T09:43:40.774Z,10.18
2017-11-15T09:44:41.025Z,10.22
2017-11-15T09:45:41.013Z,10.22
2017-11-15T09:46:40.771Z,10.26
2017-11-15T09:47:40.971Z,10.28
2017-11-15T09:48:40.412Z,10.28
2017-11-15T09:49:40.664Z,10.32
2017-11-15T09:50:40.917Z,10.34
2017-11-15T09:51:40.632Z,10.25
2017-11-15T09:52:40.346Z,10.25
2017-11-15T09:53:40.605Z,10.32
2017-11-15T09:54:40.851Z,10.37
2017-11-15T09:55:40.841Z,10.42
2017-11-15T09:56:41.022Z,10.26
2017-11-15T09:57:40.817Z,10.33
2017-11-15T09:58:40.521Z,10.28
2017-11-15T09:59:40.784Z,10.33
2017-11-15T10:00:40.491Z,10.37
2017-11-15T10:01:40.522Z,10.37
2017-11-15T10:02:40.723Z,10.46
2017-11-15T10:03:40.771Z,10.46
2017-11-15T10:04:40.430Z,10.47
2017-11-15T10:05:40.136Z,10.56
2017-11-15T10:06:40.384Z,10.51
2017-11-15T10:07:40.390Z,10.56
2017-11-15T10:08:40.089Z,10.58
2017-11-15T10:09:40.070Z,10.71
2017-11-15T10:10:40.055Z,10.7
2017-11-15T10:11:40.315Z,10.78
2017-11-15T10:12:40.596Z,10.7
2017-11-15T10:13:40.010Z,10.68
2017-11-15T10:14:40.540Z,10.78
2017-11-15T10:15:39.974Z,10.81
2017-11-15T10:16:40.502Z,10.8
2017-11-15T10:17:40.213Z,10.76
2017-11-15T10:18:40.195Z,10.84
2017-11-15T10:19:39.910Z,10.83
2017-11-15T10:20:40.433Z,10.78
2017-11-15T10:21:40.418Z,10.91
2017-11-15T10:22:40.129Z,10.91
2017-11-15T10:23:40.386Z,10.95
2017-11-15T10:24:39.827Z,10.92
2017-11-15T10:25:40.085Z,11.01
2017-11-15T10:26:40.082Z,10.98
2017-11-15T10:27:39.784Z,11.02
2017-11-15T10:28:40.037Z,10.95
2017-11-15T10:29:40.298Z,10.99
2017-11-15T10:30:40.018Z,11.03
2017-11-15T10:31:40.003Z,10.98
2017-11-15T10:32:39.971Z,10.95
2017-11-15T10:33:39.964Z,10.99
2017-11-15T10:34:39.668Z,10.92
2017-11-15T10:35:40.197Z,10.99
2017-11-15T10:36:39.640Z,10.94
2017-11-15T10:37:40.159Z,10.95
2017-11-15T10:38:39.876Z,10.92
2017-11-15T10:39:40.138Z,10.99
2017-11-15T10:40:40.114Z,10.98
2017-11-15T10:41:40.101Z,10.96
2017-11-15T10:42:39.544Z,10.91
2017-11-15T10:43:40.069Z,10.91
2017-11-15T10:44:40.054Z,10.94
2017-11-15T10:45:39.773Z,10.94
2017-11-15T10:46:40.024Z,10.98
2017-11-15T10:47:40.009Z,10.99
2017-11-15T10:48:39.992Z,11.03
2017-11-15T10:49:39.447Z,11.06
2017-11-15T10:50:39.977Z,11.07
2017-11-15T10:51:39.958Z,11.06
2017-11-15T10:52:39.929Z,11.09
2017-11-15T10:53:39.921Z,11.06
2017-11-15T10:54:39.629Z,11.01
2017-11-15T10:55:39.615Z,10.99
2017-11-15T10:56:39.863Z,11.06
2017-11-15T10:57:39.633Z,10.98
2017-11-15T10:58:39.584Z,11.01
2017-11-15T10:59:39.550Z,10.98
2017-11-15T11:00:39.531Z,11.02
2017-11-15T11:01:39.522Z,11.02
2017-11-15T11:02:39.782Z,11.03
2017-11-15T11:03:39.219Z,11.11
2017-11-15T11:04:39.746Z,11.16
2017-11-15T11:05:39.721Z,11.14
2017-11-15T11:06:39.713Z,11.1
2017-11-15T11:07:39.423Z,11.01
2017-11-15T11:08:39.421Z,11.11
2017-11-15T11:09:39.665Z,11.06
2017-11-15T11:10:39.648Z,11.1
2017-11-15T11:11:39.088Z,11.03
2017-11-15T11:12:39.665Z,11.02
2017-11-15T11:13:39.063Z,11.07
2017-11-15T11:14:39.311Z,11.07
2017-11-15T11:15:39.585Z,11.1
2017-11-15T11:16:39.286Z,11.07
2017-11-15T11:17:39.265Z,11.06
2017-11-15T11:18:39.246Z,11.07
2017-11-15T11:19:39.509Z,10.96
2017-11-15T11:20:39.216Z,11.07
2017-11-15T11:21:39.475Z,10.98
2017-11-15T11:22:39.190Z,11.06
2017-11-15T11:23:39.174Z,10.98
2017-11-15T11:24:39.163Z,11.02
2017-11-15T11:25:39.146Z,11.06
2017-11-15T11:26:39.436Z,11.01
2017-11-15T11:27:38.836Z,11.07
2017-11-15T11:28:39.089Z,11.09
2017-11-15T11:29:39.346Z,11.06
2017-11-15T11:30:39.065Z,11.03
2017-11-15T11:31:39.045Z,11.01
2017-11-15T11:32:39.037Z,11.06
2017-11-15T11:33:39.288Z,11.09
2017-11-15T11:34:39.008Z,11.01
2017-11-15T11:35:38.982Z,11.01
2017-11-15T11:36:38.969Z,10.99
2017-11-15T11:37:38.957Z,10.99
2017-11-15T11:38:39.209Z,11.02
2017-11-15T11:39:38.922Z,10.96
2017-11-15T11:40:38.904Z,10.92
2017-11-15T11:41:38.894Z,11.01
2017-11-15T11:42:39.138Z,10.99
2017-11-15T11:43:39.128Z,11.01
2017-11-15T11:44:39.107Z,10.96
2017-11-15T11:45:39.103Z,10.95
2017-11-15T11:46:38.535Z,10.95
2017-11-15T11:47:38.787Z,10.98
2017-11-15T11:48:38.504Z,10.96
2017-11-15T11:49:38.775Z,10.99
2017-11-15T11:50:39.017Z,10.94
2017-11-15T11:51:39.001Z,10.99
2017-11-15T11:52:38.990Z,11.02
2017-11-15T11:53:38.966Z,10.96
2017-11-15T11:54:38.675Z,10.98
2017-11-15T11:55:38.666Z,10.94
2017-11-15T11:56:38.848Z,10.95
2017-11-15T11:57:38.363Z,10.96
2017-11-15T11:58:38.614Z,10.94
2017-11-15T11:59:38.612Z,10.91
2017-11-15T12:00:38.902Z,10.94
2017-11-15T12:01:38.568Z,10.95
2017-11-15T12:02:38.549Z,10.94
2017-11-15T12:03:38.808Z,10.98
2017-11-15T12:04:38.519Z,10.88
2017-11-15T12:05:38.502Z,10.8
2017-11-15T12:06:38.214Z,10.94
2017-11-15T12:07:38.472Z,10.88
2017-11-15T12:08:38.731Z,10.89
2017-11-15T12:09:38.436Z,10.89
2017-11-15T12:10:38.149Z,10.95
2017-11-15T12:11:38.414Z,10.94
2017-11-15T12:12:38.671Z,10.99
2017-11-15T12:13:38.099Z,10.92
2017-11-15T12:14:38.620Z,10.94
2017-11-15T12:15:38.613Z,10.96
2017-11-15T12:16:38.596Z,10.95
2017-11-15T12:17:38.312Z,10.81
2017-11-15T12:18:38.070Z,10.92
2017-11-15T12:19:38.282Z,10.77
2017-11-15T12:20:38.533Z,10.8
2017-11-15T12:21:38.254Z,10.81
2017-11-15T12:22:38.224Z,10.88
2017-11-15T12:23:38.211Z,10.78
2017-11-15T12:24:38.473Z,10.78
2017-11-15T12:25:37.932Z,10.81
2017-11-15T12:26:38.170Z,10.83
2017-11-15T12:27:38.420Z,10.76
2017-11-15T12:28:38.400Z,10.73
2017-11-15T12:29:38.114Z,10.76
2017-11-15T12:30:38.366Z,10.74
2017-11-15T12:31:38.076Z,10.78
2017-11-15T12:32:38.333Z,10.8
2017-11-15T12:33:38.049Z,10.66
2017-11-15T12:34:37.762Z,10.76
2017-11-15T12:35:38.300Z,10.7
2017-11-15T12:36:37.732Z,10.73
2017-11-15T12:37:37.717Z,10.73
2017-11-15T12:38:37.965Z,10.76
2017-11-15T12:39:37.690Z,10.7
2017-11-15T12:40:37.661Z,10.68
2017-11-15T12:41:38.184Z,10.77
2017-11-15T12:42:38.199Z,10.7
2017-11-15T12:43:38.159Z,10.71
2017-11-15T12:44:37.864Z,10.66
2017-11-15T12:45:37.850Z,10.71
2017-11-15T12:46:37.561Z,10.77
2017-11-15T12:47:38.087Z,10.73
2017-11-15T12:48:37.856Z,10.78
2017-11-15T12:49:38.059Z,10.71
2017-11-15T12:50:37.498Z,10.73
2017-11-15T12:51:37.749Z,10.71
2017-11-15T12:52:38.012Z,10.71
2017-11-15T12:53:37.716Z,10.73
2017-11-15T12:54:37.715Z,10.76
2017-11-15T12:55:37.957Z,10.71
2017-11-15T12:56:37.669Z,10.62
2017-11-15T12:57:37.662Z,10.66
2017-11-15T12:58:37.419Z,10.7
2017-11-15T12:59:37.350Z,10.68
2017-11-15T13:00:37.608Z,10.71
2017-11-15T13:01:37.590Z,10.7
2017-11-15T13:02:37.841Z,10.71
2017-11-15T13:03:37.833Z,10.62
2017-11-15T13:04:37.537Z,10.71
2017-11-15T13:05:37.788Z,10.62
2017-11-15T13:06:37.244Z,10.51
2017-11-15T13:07:37.490Z,10.55
2017-11-15T13:08:37.203Z,10.62
2017-11-15T13:09:37.734Z,10.62
2017-11-15T13:10:37.713Z,10.63
2017-11-15T13:11:37.428Z,10.7
2017-11-15T13:12:37.675Z,10.6
2017-11-15T13:13:37.400Z,10.55